CES5402 ZPPP-ZULS
Flight info
| Callsign | CES5402 |
|---|---|
| Flight time | N/A |
| Altitude | 30100 |
| Route | GULOT W146 BUBSU/K0867S0950 W162 UPGED/K0872S0920 L888 NIVUX/K0867S0950 L888 PEXUN/K0859S0980 B213 LXA |
| Aircraft | A320/M-SDE2E3FGILRWXY/LB2 |
Departure
| Time | N/A |
|---|---|
| Airport | Kunming Changshui International Airport (ZPPP) |
Arrival
| Time | 2026-05-09 05:22 |
|---|---|
| Airport | Lhasa Gonggar International Airport (ZULS) |
| Time | Latitude | Longitude | Altitude | Speed | Heading |
|---|---|---|---|---|---|
| 2026-05-09 04:58 | 30.20627 | 93.02256 | 30284 ft | 444 kts | 250° |
| 2026-05-09 04:59 | 30.18523 | 92.95531 | 30151 ft | 446 kts | 250° |
| 2026-05-09 04:59 | 30.17465 | 92.92157 | 29878 ft | 447 kts | 250° |
| 2026-05-09 04:59 | 30.16405 | 92.88779 | 29604 ft | 448 kts | 250° |
| 2026-05-09 04:59 | 30.15340 | 92.85390 | 29337 ft | 449 kts | 250° |
| 2026-05-09 05:00 | 30.14269 | 92.81998 | 29069 ft | 450 kts | 249° |
| 2026-05-09 05:00 | 30.13194 | 92.78597 | 28809 ft | 451 kts | 250° |
| 2026-05-09 05:00 | 30.12114 | 92.75189 | 28542 ft | 453 kts | 249° |
| 2026-05-09 05:00 | 30.11030 | 92.71773 | 28283 ft | 454 kts | 249° |
| 2026-05-09 05:01 | 30.09946 | 92.68349 | 28025 ft | 455 kts | 250° |
| 2026-05-09 05:01 | 30.08861 | 92.64914 | 27775 ft | 456 kts | 250° |
| 2026-05-09 05:01 | 30.07775 | 92.61482 | 27512 ft | 455 kts | 250° |
| 2026-05-09 05:01 | 30.06692 | 92.58061 | 27260 ft | 454 kts | 250° |
| 2026-05-09 05:02 | 30.05615 | 92.54646 | 27021 ft | 453 kts | 250° |
| 2026-05-09 05:02 | 30.04525 | 92.51234 | 26767 ft | 451 kts | 247° |
| 2026-05-09 05:02 | 30.03120 | 92.48015 | 26524 ft | 450 kts | 238° |
| 2026-05-09 05:02 | 30.01326 | 92.45065 | 26289 ft | 449 kts | 231° |
| 2026-05-09 05:03 | 29.99202 | 92.42442 | 26046 ft | 447 kts | 223° |
| 2026-05-09 05:03 | 29.96789 | 92.40188 | 25811 ft | 447 kts | 215° |
| 2026-05-09 05:03 | 29.94180 | 92.38238 | 25568 ft | 445 kts | 213° |
| 2026-05-09 05:03 | 29.91567 | 92.36332 | 25332 ft | 444 kts | 213° |
| 2026-05-09 05:04 | 29.88956 | 92.34436 | 25098 ft | 443 kts | 212° |
| 2026-05-09 05:04 | 29.86357 | 92.32557 | 24864 ft | 441 kts | 212° |
| 2026-05-09 05:04 | 29.83790 | 92.30708 | 24652 ft | 440 kts | 212° |
| 2026-05-09 05:04 | 29.81205 | 92.28846 | 24556 ft | 438 kts | 212° |
| 2026-05-09 05:05 | 29.78623 | 92.26985 | 24355 ft | 438 kts | 212° |
| 2026-05-09 05:05 | 29.76043 | 92.25121 | 24127 ft | 436 kts | 212° |
| 2026-05-09 05:05 | 29.73476 | 92.23266 | 23897 ft | 435 kts | 212° |
| 2026-05-09 05:05 | 29.70917 | 92.21418 | 23668 ft | 433 kts | 212° |
| 2026-05-09 05:06 | 29.68368 | 92.19581 | 23542 ft | 431 kts | 212° |
| 2026-05-09 05:06 | 29.65824 | 92.17749 | 23565 ft | 432 kts | 212° |
| 2026-05-09 05:06 | 29.63280 | 92.15916 | 23557 ft | 431 kts | 212° |
| 2026-05-09 05:06 | 29.60737 | 92.14087 | 23559 ft | 431 kts | 212° |
| 2026-05-09 05:07 | 29.58192 | 92.12260 | 23545 ft | 431 kts | 212° |
| 2026-05-09 05:07 | 29.55648 | 92.10432 | 23540 ft | 431 kts | 212° |
| 2026-05-09 05:07 | 29.53107 | 92.08602 | 23539 ft | 431 kts | 212° |
| 2026-05-09 05:07 | 29.50562 | 92.06771 | 23525 ft | 432 kts | 212° |
| 2026-05-09 05:08 | 29.48015 | 92.04940 | 23517 ft | 431 kts | 212° |
| 2026-05-09 05:08 | 29.45474 | 92.03116 | 23505 ft | 432 kts | 212° |
| 2026-05-09 05:08 | 29.42924 | 92.01290 | 23507 ft | 432 kts | 212° |
| 2026-05-09 05:08 | 29.40377 | 91.99466 | 23491 ft | 432 kts | 212° |
| 2026-05-09 05:09 | 29.37826 | 91.97641 | 23489 ft | 432 kts | 213° |
| 2026-05-09 05:09 | 29.35406 | 91.95610 | 23488 ft | 431 kts | 221° |
| 2026-05-09 05:09 | 29.33315 | 91.93153 | 23479 ft | 431 kts | 231° |
| 2026-05-09 05:09 | 29.31621 | 91.90346 | 23351 ft | 424 kts | 240° |
| 2026-05-09 05:10 | 29.30320 | 91.87370 | 23078 ft | 412 kts | 244° |
| 2026-05-09 05:10 | 29.29086 | 91.84453 | 22813 ft | 402 kts | 244° |
| 2026-05-09 05:10 | 29.27869 | 91.81606 | 22548 ft | 394 kts | 243° |
| 2026-05-09 05:10 | 29.26709 | 91.78803 | 22286 ft | 385 kts | 248° |
| 2026-05-09 05:11 | 29.26011 | 91.75877 | 22030 ft | 378 kts | 261° |
| 2026-05-09 05:11 | 29.25906 | 91.72905 | 21772 ft | 371 kts | 274° |
| 2026-05-09 05:11 | 29.26162 | 91.69993 | 21517 ft | 364 kts | 275° |
| 2026-05-09 05:11 | 29.26416 | 91.67139 | 21271 ft | 357 kts | 275° |
| 2026-05-09 05:12 | 29.26654 | 91.64373 | 21026 ft | 351 kts | 275° |
| 2026-05-09 05:12 | 29.26889 | 91.61613 | 20782 ft | 346 kts | 275° |
| 2026-05-09 05:12 | 29.27119 | 91.58873 | 20518 ft | 345 kts | 275° |
| 2026-05-09 05:12 | 29.27352 | 91.56130 | 20020 ft | 349 kts | 275° |
| 2026-05-09 05:13 | 29.27584 | 91.53383 | 19646 ft | 343 kts | 275° |
| 2026-05-09 05:13 | 29.27812 | 91.50673 | 18961 ft | 341 kts | 275° |
| 2026-05-09 05:13 | 29.28029 | 91.47980 | 18340 ft | 339 kts | 274° |
| 2026-05-09 05:13 | 29.28231 | 91.45308 | 17728 ft | 334 kts | 274° |
| 2026-05-09 05:14 | 29.28426 | 91.42672 | 17174 ft | 330 kts | 274° |
| 2026-05-09 05:14 | 29.28617 | 91.40066 | 16765 ft | 325 kts | 274° |
| 2026-05-09 05:14 | 29.28798 | 91.37558 | 16684 ft | 306 kts | 274° |
| 2026-05-09 05:14 | 29.28911 | 91.35977 | 16632 ft | 295 kts | 274° |
| 2026-05-09 05:15 | 29.29079 | 91.33667 | 16517 ft | 288 kts | 274° |
| 2026-05-09 05:15 | 29.29300 | 91.30663 | 16365 ft | 279 kts | 274° |
| 2026-05-09 05:15 | 29.29407 | 91.29212 | 16300 ft | 274 kts | 274° |
| 2026-05-09 05:15 | 29.29565 | 91.27072 | 16324 ft | 260 kts | 274° |
| 2026-05-09 05:16 | 29.29713 | 91.25104 | 16316 ft | 237 kts | 274° |
| 2026-05-09 05:16 | 29.29850 | 91.23289 | 16311 ft | 221 kts | 274° |
| 2026-05-09 05:16 | 29.30008 | 91.21086 | 16160 ft | 202 kts | 272° |
| 2026-05-09 05:16 | 29.30086 | 91.19535 | 15887 ft | 189 kts | 271° |
| 2026-05-09 05:17 | 29.30132 | 91.18059 | 15641 ft | 184 kts | 271° |
| 2026-05-09 05:17 | 29.30145 | 91.17071 | 15486 ft | 183 kts | 270° |
| 2026-05-09 05:17 | 29.30144 | 91.15615 | 15256 ft | 182 kts | 269° |
| 2026-05-09 05:17 | 29.30125 | 91.14163 | 15032 ft | 182 kts | 269° |
| 2026-05-09 05:18 | 29.30105 | 91.12717 | 14809 ft | 181 kts | 269° |
| 2026-05-09 05:18 | 29.30084 | 91.11274 | 14578 ft | 181 kts | 269° |
| 2026-05-09 05:18 | 29.30065 | 91.09835 | 14365 ft | 180 kts | 269° |
| 2026-05-09 05:18 | 29.30047 | 91.08421 | 14194 ft | 180 kts | 269° |
| 2026-05-09 05:19 | 29.30028 | 91.06985 | 14018 ft | 179 kts | 270° |
| 2026-05-09 05:19 | 29.30010 | 91.05558 | 13789 ft | 179 kts | 270° |
| 2026-05-09 05:19 | 29.29990 | 91.04144 | 13490 ft | 177 kts | 270° |
| 2026-05-09 05:19 | 29.29970 | 91.02740 | 13238 ft | 175 kts | 270° |
| 2026-05-09 05:20 | 29.29954 | 91.01337 | 12987 ft | 177 kts | 270° |
| 2026-05-09 05:20 | 29.29935 | 90.99933 | 12750 ft | 177 kts | 270° |
| 2026-05-09 05:20 | 29.29920 | 90.98526 | 12557 ft | 176 kts | 270° |
| 2026-05-09 05:20 | 29.29899 | 90.97127 | 12344 ft | 175 kts | 270° |
| 2026-05-09 05:21 | 29.29880 | 90.95732 | 12088 ft | 174 kts | 270° |
| 2026-05-09 05:21 | 29.29856 | 90.94346 | 11837 ft | 174 kts | 270° |
| 2026-05-09 05:21 | 29.29831 | 90.92967 | 11592 ft | 173 kts | 270° |
| 2026-05-09 05:21 | 29.29813 | 90.91682 | 11553 ft | 145 kts | 270° |
| 2026-05-09 05:22 | 29.29801 | 90.90709 | 11549 ft | 98 kts | 269° |
| 2026-05-09 05:22 | 29.29792 | 90.90146 | 11557 ft | 33 kts | 269° |
| 2026-05-09 05:22 | 29.29770 | 90.90019 | 11544 ft | 11 kts | 222° |
| 2026-05-09 05:22 | 29.29696 | 90.90008 | 11554 ft | 11 kts | 180° |
| 2026-05-09 05:23 | 29.29610 | 90.90007 | 11548 ft | 13 kts | 180° |
| 2026-05-09 05:23 | 29.29539 | 90.89997 | 11545 ft | 9 kts | 214° |
| 2026-05-09 05:23 | 29.29525 | 90.89935 | 11554 ft | 8 kts | 268° |
| 2026-05-09 05:23 | 29.29524 | 90.89871 | 11556 ft | 9 kts | 269° |
| 2026-05-09 05:24 | 29.29523 | 90.89786 | 11555 ft | 12 kts | 269° |
| 2026-05-09 05:24 | 29.29521 | 90.89689 | 11556 ft | 13 kts | 269° |
| 2026-05-09 05:24 | 29.29520 | 90.89586 | 11550 ft | 13 kts | 269° |
| 2026-05-09 05:24 | 29.29518 | 90.89478 | 11557 ft | 14 kts | 269° |
| 2026-05-09 05:25 | 29.29516 | 90.89394 | 11556 ft | 8 kts | 265° |
| 2026-05-09 05:25 | 29.29479 | 90.89371 | 11550 ft | 6 kts | 182° |
| 2026-05-09 05:25 | 29.29399 | 90.89370 | 11548 ft | 3 kts | 180° |
| 2026-05-09 05:26 | 29.29383 | 90.89370 | 11549 ft | 1 kts | 181° |
| 2026-05-09 05:26 | 29.29377 | 90.89370 | 11550 ft | 1 kts | 181° |
| 2026-05-09 05:26 | 29.29376 | 90.89370 | 11542 ft | 0 kts | 181° |